sensor_id;sensor_type;location;lat;lon;timestamp;pressure;altitude;pressure_sealevel;temperature;humidity
65897;BME280;52677;50.898;10.854;2022-10-28T00:00:04;99184.22;;;11.97;100.00
65897;BME280;52677;50.898;10.854;2022-10-28T00:02:04;99192.13;;;11.95;100.00
65897;BME280;52677;50.898;10.854;2022-10-28T00:04:05;99182.06;;;11.87;100.00
65897;BME280;52677;50.898;10.854;2022-10-28T00:06:08;99188.28;;;11.80;100.00
65897;BME280;52677;50.898;10.854;2022-10-28T00:08:09;99182.16;;;11.71;100.00
65897;BME280;52677;50.898;10.854;2022-10-28T00:10:10;99185.31;;;11.70;100.00
65897;BME280;52677;50.898;10.854;2022-10-28T00:12:10;99182.91;;;11.68;100.00
65897;BME280;52677;50.898;10.854;2022-10-28T00:14:10;99184.56;;;11.73;100.00
65897;BME280;52677;50.898;10.854;2022-10-28T00:16:17;99190.09;;;11.73;100.00
65897;BME280;52677;50.898;10.854;2022-10-28T00:18:17;99181.31;;;11.67;100.00
65897;BME280;52677;50.898;10.854;2022-10-28T00:20:18;99183.63;;;11.65;100.00
65897;BME280;52677;50.898;10.854;2022-10-28T00:22:18;99198.59;;;11.61;100.00
65897;BME280;52677;50.898;10.854;2022-10-28T00:24:18;99204.50;;;11.59;100.00
65897;BME280;52677;50.898;10.854;2022-10-28T00:26:21;99202.47;;;11.56;100.00
65897;BME280;52677;50.898;10.854;2022-10-28T00:28:22;99204.06;;;11.57;100.00
65897;BME280;52677;50.898;10.854;2022-10-28T00:30:22;99201.75;;;11.59;100.00
65897;BME280;52677;50.898;10.854;2022-10-28T00:32:22;99201.78;;;11.63;100.00
65897;BME280;52677;50.898;10.854;2022-10-28T00:34:23;99197.94;;;11.67;100.00
65897;BME280;52677;50.898;10.854;2022-10-28T00:36:29;99194.72;;;11.65;100.00
65897;BME280;52677;50.898;10.854;2022-10-28T00:38:30;99192.69;;;11.62;100.00
65897;BME280;52677;50.898;10.854;2022-10-28T00:40:34;99191.38;;;11.56;100.00
65897;BME280;52677;50.898;10.854;2022-10-28T00:42:35;99198.31;;;11.46;100.00
65897;BME280;52677;50.898;10.854;2022-10-28T00:46:41;99183.31;;;11.28;100.00
65897;BME280;52677;50.898;10.854;2022-10-28T00:48:46;99185.19;;;11.24;100.00
65897;BME280;52677;50.898;10.854;2022-10-28T00:50:49;99193.38;;;11.17;100.00
65897;BME280;52677;50.898;10.854;2022-10-28T00:52:57;99185.75;;;11.10;100.00
65897;BME280;52677;50.898;10.854;2022-10-28T00:55:00;99189.69;;;11.09;100.00
65897;BME280;52677;50.898;10.854;2022-10-28T00:57:03;99191.97;;;11.07;100.00
65897;BME280;52677;50.898;10.854;2022-10-28T00:59:08;99193.91;;;11.03;100.00
65897;BME280;52677;50.898;10.854;2022-10-28T01:01:10;99194.25;;;11.02;100.00
65897;BME280;52677;50.898;10.854;2022-10-28T01:03:11;99196.94;;;10.98;100.00
65897;BME280;52677;50.898;10.854;2022-10-28T01:05:14;99196.06;;;10.94;100.00
65897;BME280;52677;50.898;10.854;2022-10-28T01:07:16;99188.56;;;10.94;100.00
65897;BME280;52677;50.898;10.854;2022-10-28T01:09:16;99195.88;;;11.03;100.00
65897;BME280;52677;50.898;10.854;2022-10-28T01:11:30;99196.22;;;11.01;100.00
65897;BME280;52677;50.898;10.854;2022-10-28T01:16:12;99180.91;;;10.88;100.00
65897;BME280;52677;50.898;10.854;2022-10-28T01:22:29;99185.56;;;10.84;100.00
65897;BME280;52677;50.898;10.854;2022-10-28T01:24:42;99176.81;;;10.82;100.00
65897;BME280;52677;50.898;10.854;2022-10-28T01:26:51;99185.06;;;10.78;100.00
65897;BME280;52677;50.898;10.854;2022-10-28T01:31:41;99174.25;;;10.73;100.00
65897;BME280;52677;50.898;10.854;2022-10-28T01:33:51;99177.13;;;10.77;100.00
65897;BME280;52677;50.898;10.854;2022-10-28T01:38:34;99170.91;;;10.64;100.00
65897;BME280;52677;50.898;10.854;2022-10-28T01:40:45;99166.09;;;10.61;100.00
65897;BME280;52677;50.898;10.854;2022-10-28T01:43:08;99163.22;;;10.57;100.00
65897;BME280;52677;50.898;10.854;2022-10-28T01:47:27;99161.94;;;10.51;100.00
65897;BME280;52677;50.898;10.854;2022-10-28T01:49:55;99167.47;;;10.51;100.00
65897;BME280;52677;50.898;10.854;2022-10-28T01:52:01;99173.44;;;10.53;100.00
65897;BME280;52677;50.898;10.854;2022-10-28T01:54:05;99169.94;;;10.56;100.00
65897;BME280;52677;50.898;10.854;2022-10-28T01:56:11;99175.47;;;10.56;100.00
65897;BME280;52677;50.898;10.854;2022-10-28T01:58:16;99163.06;;;10.50;100.00
65897;BME280;52677;50.898;10.854;2022-10-28T02:00:18;99163.44;;;10.49;100.00
65897;BME280;52677;50.898;10.854;2022-10-28T02:02:18;99165.75;;;10.47;100.00
65897;BME280;52677;50.898;10.854;2022-10-28T02:04:19;99159.81;;;10.45;100.00
65897;BME280;52677;50.898;10.854;2022-10-28T02:06:21;99156.94;;;10.41;100.00
65897;BME280;52677;50.898;10.854;2022-10-28T02:08:34;99152.56;;;10.40;100.00
65897;BME280;52677;50.898;10.854;2022-10-28T02:10:41;99159.63;;;10.37;100.00
65897;BME280;52677;50.898;10.854;2022-10-28T02:12:49;99146.88;;;10.33;100.00
65897;BME280;52677;50.898;10.854;2022-10-28T02:17:38;99156.63;;;10.27;100.00
65897;BME280;52677;50.898;10.854;2022-10-28T02:19:50;99162.84;;;10.24;100.00
65897;BME280;52677;50.898;10.854;2022-10-28T02:22:00;99160.00;;;10.20;100.00
65897;BME280;52677;50.898;10.854;2022-10-28T02:24:13;99159.56;;;10.18;100.00
65897;BME280;52677;50.898;10.854;2022-10-28T02:26:32;99155.97;;;10.18;100.00
65897;BME280;52677;50.898;10.854;2022-10-28T02:28:41;99157.13;;;10.17;100.00
65897;BME280;52677;50.898;10.854;2022-10-28T02:31:03;99152.06;;;10.19;100.00
65897;BME280;52677;50.898;10.854;2022-10-28T02:33:08;99151.69;;;10.20;100.00
65897;BME280;52677;50.898;10.854;2022-10-28T02:35:16;99142.59;;;10.20;100.00
65897;BME280;52677;50.898;10.854;2022-10-28T02:37:23;99141.09;;;10.22;100.00
65897;BME280;52677;50.898;10.854;2022-10-28T02:39:31;99145.09;;;10.25;100.00
65897;BME280;52677;50.898;10.854;2022-10-28T02:41:49;99138.78;;;10.24;100.00
65897;BME280;52677;50.898;10.854;2022-10-28T02:43:54;99152.59;;;10.24;100.00
65897;BME280;52677;50.898;10.854;2022-10-28T02:45:58;99154.28;;;10.29;100.00
65897;BME280;52677;50.898;10.854;2022-10-28T02:48:05;99141.63;;;10.28;100.00
65897;BME280;52677;50.898;10.854;2022-10-28T02:50:09;99148.41;;;10.30;100.00
65897;BME280;52677;50.898;10.854;2022-10-28T02:52:12;99149.56;;;10.29;100.00
65897;BME280;52677;50.898;10.854;2022-10-28T02:54:21;99144.66;;;10.23;100.00
65897;BME280;52677;50.898;10.854;2022-10-28T02:56:23;99145.81;;;10.22;100.00
65897;BME280;52677;50.898;10.854;2022-10-28T02:58:24;99139.38;;;10.18;100.00
65897;BME280;52677;50.898;10.854;2022-10-28T03:00:24;99138.66;;;10.21;100.00
65897;BME280;52677;50.898;10.854;2022-10-28T03:02:25;99139.38;;;10.18;100.00
65897;BME280;52677;50.898;10.854;2022-10-28T03:04:25;99135.81;;;10.17;100.00
65897;BME280;52677;50.898;10.854;2022-10-28T03:06:26;99139.03;;;10.19;100.00
65897;BME280;52677;50.898;10.854;2022-10-28T03:08:26;99139.03;;;10.19;100.00
65897;BME280;52677;50.898;10.854;2022-10-28T03:10:26;99136.16;;;10.16;100.00
65897;BME280;52677;50.898;10.854;2022-10-28T03:12:26;99134.66;;;10.18;100.00
65897;BME280;52677;50.898;10.854;2022-10-28T03:14:27;99131.53;;;10.20;100.00
65897;BME280;52677;50.898;10.854;2022-10-28T03:16:27;99131.53;;;10.20;100.00
65897;BME280;52677;50.898;10.854;2022-10-28T03:18:27;99128.41;;;10.21;100.00
65897;BME280;52677;50.898;10.854;2022-10-28T03:20:28;99122.97;;;10.25;100.00
65897;BME280;52677;50.898;10.854;2022-10-28T03:22:28;99133.34;;;10.28;100.00
65897;BME280;52677;50.898;10.854;2022-10-28T03:24:28;99128.25;;;10.30;100.00
65897;BME280;52677;50.898;10.854;2022-10-28T03:26:28;99125.09;;;10.31;100.00
65897;BME280;52677;50.898;10.854;2022-10-28T03:28:29;99131.44;;;10.32;100.00
65897;BME280;52677;50.898;10.854;2022-10-28T03:30:29;99131.44;;;10.32;100.00
65897;BME280;52677;50.898;10.854;2022-10-28T03:32:29;99121.91;;;10.29;100.00
65897;BME280;52677;50.898;10.854;2022-10-28T03:34:30;99125.03;;;10.28;100.00
65897;BME280;52677;50.898;10.854;2022-10-28T03:36:30;99117.44;;;10.25;100.00
65897;BME280;52677;50.898;10.854;2022-10-28T03:38:30;99119.69;;;10.19;100.00
65897;BME280;52677;50.898;10.854;2022-10-28T03:40:30;99121.97;;;10.17;100.00
65897;BME280;52677;50.898;10.854;2022-10-28T03:42:31;99128.97;;;10.11;100.00
65897;BME280;52677;50.898;10.854;2022-10-28T03:44:33;99130.13;;;10.10;100.00
65897;BME280;52677;50.898;10.854;2022-10-28T03:46:33;99137.53;;;10.06;100.00
65897;BME280;52677;50.898;10.854;2022-10-28T03:48:33;99142.25;;;10.05;100.00
65897;BME280;52677;50.898;10.854;2022-10-28T03:50:34;99160.38;;;10.03;100.00
65897;BME280;52677;50.898;10.854;2022-10-28T03:52:34;99155.63;;;10.03;100.00
65897;BME280;52677;50.898;10.854;2022-10-28T03:54:35;99146.91;;;10.01;100.00
65897;BME280;52677;50.898;10.854;2022-10-28T03:56:35;99162.31;;;10.02;100.00
65897;BME280;52677;50.898;10.854;2022-10-28T03:58:35;99168.56;;;9.99;100.00
65897;BME280;52677;50.898;10.854;2022-10-28T04:00:38;99166.25;;;10.01;100.00
65897;BME280;52677;50.898;10.854;2022-10-28T04:02:39;99157.84;;;9.98;100.00
65897;BME280;52677;50.898;10.854;2022-10-28T04:04:39;99157.78;;;9.94;100.00
65897;BME280;52677;50.898;10.854;2022-10-28T04:06:39;99159.47;;;9.99;100.00
65897;BME280;52677;50.898;10.854;2022-10-28T04:08:39;99154.28;;;9.97;100.00
65897;BME280;52677;50.898;10.854;2022-10-28T04:10:40;99149.56;;;9.98;100.00
65897;BME280;52677;50.898;10.854;2022-10-28T04:12:40;99147.53;;;9.95;100.00
65897;BME280;52677;50.898;10.854;2022-10-28T04:14:40;99161.44;;;9.98;100.00
65897;BME280;52677;50.898;10.854;2022-10-28T04:16:41;99148.31;;;9.95;100.00
65897;BME280;52677;50.898;10.854;2022-10-28T04:18:41;99143.97;;;9.94;100.00
65897;BME280;52677;50.898;10.854;2022-10-28T04:20:41;99159.03;;;9.97;100.00
65897;BME280;52677;50.898;10.854;2022-10-28T04:22:41;99149.50;;;9.94;100.00
65897;BME280;52677;50.898;10.854;2022-10-28T04:24:42;99152.34;;;9.98;100.00
65897;BME280;52677;50.898;10.854;2022-10-28T04:26:42;99157.97;;;10.01;100.00
65897;BME280;52677;50.898;10.854;2022-10-28T04:28:42;99154.84;;;10.03;100.00
65897;BME280;52677;50.898;10.854;2022-10-28T04:30:45;99168.66;;;10.03;100.00
65897;BME280;52677;50.898;10.854;2022-10-28T04:32:46;99177.38;;;10.05;100.00
65897;BME280;52677;50.898;10.854;2022-10-28T04:34:46;99165.16;;;10.06;100.00
65897;BME280;52677;50.898;10.854;2022-10-28T04:36:47;99162.84;;;10.08;100.00
65897;BME280;52677;50.898;10.854;2022-10-28T04:38:47;99167.31;;;10.12;100.00
65897;BME280;52677;50.898;10.854;2022-10-28T04:40:49;99169.34;;;10.16;100.00
65897;BME280;52677;50.898;10.854;2022-10-28T04:42:49;99160.69;;;10.17;100.00
65897;BME280;52677;50.898;10.854;2022-10-28T04:44:49;99152.97;;;10.23;100.00
65897;BME280;52677;50.898;10.854;2022-10-28T04:46:50;99163.28;;;10.26;100.00
65897;BME280;52677;50.898;10.854;2022-10-28T04:48:50;99161.78;;;10.28;100.00
65897;BME280;52677;50.898;10.854;2022-10-28T04:50:50;99161.06;;;10.31;100.00
65897;BME280;52677;50.898;10.854;2022-10-28T04:52:52;99155.09;;;10.29;100.00
65897;BME280;52677;50.898;10.854;2022-10-28T04:54:52;99156.31;;;10.32;100.00
65897;BME280;52677;50.898;10.854;2022-10-28T04:56:53;99152.06;;;10.34;100.00
65897;BME280;52677;50.898;10.854;2022-10-28T04:58:54;99155.25;;;10.36;100.00
65897;BME280;52677;50.898;10.854;2022-10-28T05:00:54;99148.56;;;10.37;100.00
65897;BME280;52677;50.898;10.854;2022-10-28T05:02:54;99151.69;;;10.36;100.00
65897;BME280;52677;50.898;10.854;2022-10-28T05:04:55;99147.66;;;10.33;100.00
65897;BME280;52677;50.898;10.854;2022-10-28T05:06:59;99150.91;;;10.35;100.00
65897;BME280;52677;50.898;10.854;2022-10-28T05:08:59;99156.44;;;10.35;100.00
65897;BME280;52677;50.898;10.854;2022-10-28T05:10:59;99146.16;;;10.36;100.00
65897;BME280;52677;50.898;10.854;2022-10-28T05:13:00;99145.38;;;10.35;100.00
65897;BME280;52677;50.898;10.854;2022-10-28T05:15:00;99146.66;;;10.41;100.00
65897;BME280;52677;50.898;10.854;2022-10-28T05:17:00;99145.88;;;10.41;100.00
65897;BME280;52677;50.898;10.854;2022-10-28T05:19:00;99150.59;;;10.40;100.00
65897;BME280;52677;50.898;10.854;2022-10-28T05:21:01;99147.03;;;10.40;100.00
65897;BME280;52677;50.898;10.854;2022-10-28T05:23:01;99146.97;;;10.36;100.00
65897;BME280;52677;50.898;10.854;2022-10-28T05:25:02;99144.47;;;10.31;100.00
65897;BME280;52677;50.898;10.854;2022-10-28T05:27:03;99134.94;;;10.29;100.00
65897;BME280;52677;50.898;10.854;2022-10-28T05:29:03;99145.91;;;10.25;100.00
65897;BME280;52677;50.898;10.854;2022-10-28T05:31:03;99154.19;;;10.25;100.00
65897;BME280;52677;50.898;10.854;2022-10-28T05:33:04;99152.84;;;10.19;100.00
65897;BME280;52677;50.898;10.854;2022-10-28T05:35:04;99154.72;;;10.15;100.00
65897;BME280;52677;50.898;10.854;2022-10-28T05:37:05;99162.22;;;10.14;100.00
65897;BME280;52677;50.898;10.854;2022-10-28T05:39:05;99159.00;;;10.12;100.00
65897;BME280;52677;50.898;10.854;2022-10-28T05:41:05;99150.63;;;10.09;100.00
65897;BME280;52677;50.898;10.854;2022-10-28T05:43:06;99142.31;;;10.09;100.00
65897;BME280;52677;50.898;10.854;2022-10-28T05:45:08;99132.09;;;10.09;100.00
65897;BME280;52677;50.898;10.854;2022-10-28T05:47:09;99140.03;;;10.11;100.00
65897;BME280;52677;50.898;10.854;2022-10-28T05:49:09;99127.78;;;10.12;100.00
65897;BME280;52677;50.898;10.854;2022-10-28T05:51:09;99136.09;;;10.12;100.00
65897;BME280;52677;50.898;10.854;2022-10-28T05:53:10;99136.97;;;10.16;100.00
65897;BME280;52677;50.898;10.854;2022-10-28T05:55:10;99115.03;;;10.23;100.00
65897;BME280;52677;50.898;10.854;2022-10-28T05:57:10;99125.47;;;10.30;100.00
65897;BME280;52677;50.898;10.854;2022-10-28T05:59:10;99118.88;;;10.34;100.00
65897;BME280;52677;50.898;10.854;2022-10-28T06:01:11;99113.84;;;10.40;100.00
65897;BME280;52677;50.898;10.854;2022-10-28T06:03:11;99118.31;;;10.45;100.00
65897;BME280;52677;50.898;10.854;2022-10-28T06:05:11;99125.88;;;10.48;100.00
65897;BME280;52677;50.898;10.854;2022-10-28T06:07:12;99121.94;;;10.49;100.00
65897;BME280;52677;50.898;10.854;2022-10-28T06:09:12;99110.06;;;10.48;100.00
65897;BME280;52677;50.898;10.854;2022-10-28T06:11:12;99123.19;;;10.51;100.00
65897;BME280;52677;50.898;10.854;2022-10-28T06:13:13;99124.34;;;10.50;100.00
65897;BME280;52677;50.898;10.854;2022-10-28T06:15:13;99125.22;;;10.54;100.00
65897;BME280;52677;50.898;10.854;2022-10-28T06:17:13;99119.59;;;10.51;100.00
65897;BME280;52677;50.898;10.854;2022-10-28T06:19:14;99129.16;;;10.53;100.00
65897;BME280;52677;50.898;10.854;2022-10-28T06:21:14;99118.53;;;10.55;100.00
65897;BME280;52677;50.898;10.854;2022-10-28T06:23:14;99122.19;;;10.59;100.00
65897;BME280;52677;50.898;10.854;2022-10-28T06:25:15;99119.13;;;10.64;100.00
65897;BME280;52677;50.898;10.854;2022-10-28T06:27:15;99115.75;;;10.75;100.00
65897;BME280;52677;50.898;10.854;2022-10-28T06:29:16;99119.94;;;10.84;100.00
65897;BME280;52677;50.898;10.854;2022-10-28T06:31:16;99117.97;;;10.85;100.00
65897;BME280;52677;50.898;10.854;2022-10-28T06:33:16;99110.16;;;10.90;100.00
65897;BME280;52677;50.898;10.854;2022-10-28T06:35:17;99121.75;;;10.96;100.00
65897;BME280;52677;50.898;10.854;2022-10-28T06:37:17;99111.84;;;10.95;100.00
65897;BME280;52677;50.898;10.854;2022-10-28T06:39:18;99116.66;;;10.98;100.00
65897;BME280;52677;50.898;10.854;2022-10-28T06:41:18;99112.69;;;10.99;100.00
65897;BME280;52677;50.898;10.854;2022-10-28T06:43:18;99112.38;;;11.01;100.00
65897;BME280;52677;50.898;10.854;2022-10-28T06:45:19;99111.63;;;11.04;100.00
65897;BME280;52677;50.898;10.854;2022-10-28T06:47:20;99112.84;;;11.06;100.00
65897;BME280;52677;50.898;10.854;2022-10-28T06:49:20;99097.84;;;11.07;100.00
65897;BME280;52677;50.898;10.854;2022-10-28T06:51:21;99086.09;;;11.14;100.00
65897;BME280;52677;50.898;10.854;2022-10-28T06:53:21;99082.19;;;11.38;100.00
65897;BME280;52677;50.898;10.854;2022-10-28T06:55:23;99085.75;;;11.61;100.00
65897;BME280;52677;50.898;10.854;2022-10-28T06:57:23;99068.69;;;11.82;100.00
65897;BME280;52677;50.898;10.854;2022-10-28T06:59:23;99077.25;;;11.96;100.00
65897;BME280;52677;50.898;10.854;2022-10-28T07:01:24;99066.22;;;12.26;100.00
65897;BME280;52677;50.898;10.854;2022-10-28T07:03:24;99062.53;;;12.49;100.00
65897;BME280;52677;50.898;10.854;2022-10-28T07:05:25;99055.28;;;12.71;100.00
65897;BME280;52677;50.898;10.854;2022-10-28T07:07:26;99066.22;;;12.90;100.00
65897;BME280;52677;50.898;10.854;2022-10-28T07:09:26;99043.84;;;13.13;100.00
65897;BME280;52677;50.898;10.854;2022-10-28T07:11:27;99047.34;;;13.43;97.63
65897;BME280;52677;50.898;10.854;2022-10-28T07:13:28;99042.78;;;13.65;96.89
65897;BME280;52677;50.898;10.854;2022-10-28T07:15:28;99021.00;;;13.74;95.62
65897;BME280;52677;50.898;10.854;2022-10-28T07:17:28;99030.63;;;13.84;95.86
65897;BME280;52677;50.898;10.854;2022-10-28T07:19:29;99047.47;;;14.09;93.67
65897;BME280;52677;50.898;10.854;2022-10-28T07:21:29;99052.91;;;14.53;91.71
65897;BME280;52677;50.898;10.854;2022-10-28T07:23:29;99050.66;;;14.87;90.06
65897;BME280;52677;50.898;10.854;2022-10-28T07:25:31;99061.03;;;14.94;89.65
65897;BME280;52677;50.898;10.854;2022-10-28T07:27:32;99055.00;;;14.78;90.96
65897;BME280;52677;50.898;10.854;2022-10-28T07:29:32;99060.94;;;14.73;91.14
65897;BME280;52677;50.898;10.854;2022-10-28T07:31:32;99062.94;;;14.69;91.38
65897;BME280;52677;50.898;10.854;2022-10-28T07:33:33;99059.31;;;14.61;92.78
65897;BME280;52677;50.898;10.854;2022-10-28T07:35:33;99061.31;;;14.64;90.58
65897;BME280;52677;50.898;10.854;2022-10-28T07:37:33;99060.88;;;14.55;92.06
65897;BME280;52677;50.898;10.854;2022-10-28T07:39:33;99069.22;;;14.51;92.68
65897;BME280;52677;50.898;10.854;2022-10-28T07:41:36;99059.66;;;14.49;92.33
65897;BME280;52677;50.898;10.854;2022-10-28T07:43:37;99054.47;;;14.47;92.84
65897;BME280;52677;50.898;10.854;2022-10-28T07:45:37;99070.38;;;14.47;92.86
65897;BME280;52677;50.898;10.854;2022-10-28T07:47:38;99071.94;;;14.44;93.44
65897;BME280;52677;50.898;10.854;2022-10-28T07:49:38;99063.25;;;14.49;92.77
65897;BME280;52677;50.898;10.854;2022-10-28T07:51:38;99070.41;;;14.54;93.16
65897;BME280;52677;50.898;10.854;2022-10-28T07:53:40;99074.75;;;14.48;93.19
65897;BME280;52677;50.898;10.854;2022-10-28T07:55:40;99059.19;;;14.43;94.17
65897;BME280;52677;50.898;10.854;2022-10-28T07:57:40;99062.78;;;14.44;93.16
65897;BME280;52677;50.898;10.854;2022-10-28T07:59:41;99052.91;;;14.50;92.20
65897;BME280;52677;50.898;10.854;2022-10-28T08:01:41;99057.28;;;14.54;91.54
65897;BME280;52677;50.898;10.854;2022-10-28T08:03:41;99056.88;;;14.56;91.61
65897;BME280;52677;50.898;10.854;2022-10-28T08:05:42;99054.94;;;14.64;92.18
65897;BME280;52677;50.898;10.854;2022-10-28T08:07:43;99060.94;;;14.69;92.07
65897;BME280;52677;50.898;10.854;2022-10-28T08:09:43;99058.56;;;14.68;92.68
65897;BME280;52677;50.898;10.854;2022-10-28T08:11:44;99053.78;;;14.72;92.78
65897;BME280;52677;50.898;10.854;2022-10-28T08:13:45;99057.38;;;14.76;92.83
65897;BME280;52677;50.898;10.854;2022-10-28T08:15:52;99060.59;;;14.85;92.49
65897;BME280;52677;50.898;10.854;2022-10-28T08:17:54;99060.63;;;14.96;92.44
65897;BME280;52677;50.898;10.854;2022-10-28T08:19:54;99053.09;;;15.03;91.03
65897;BME280;52677;50.898;10.854;2022-10-28T08:21:54;99063.47;;;15.13;90.73
65897;BME280;52677;50.898;10.854;2022-10-28T08:23:55;99056.34;;;15.23;91.03
65897;BME280;52677;50.898;10.854;2022-10-28T08:25:55;99055.16;;;15.31;90.83
65897;BME280;52677;50.898;10.854;2022-10-28T08:27:56;99047.97;;;15.37;89.63
65897;BME280;52677;50.898;10.854;2022-10-28T08:29:56;99058.38;;;15.48;89.44
65897;BME280;52677;50.898;10.854;2022-10-28T08:31:57;99057.56;;;15.51;89.44
65897;BME280;52677;50.898;10.854;2022-10-28T08:33:57;99065.97;;;15.61;90.31
65897;BME280;52677;50.898;10.854;2022-10-28T08:35:57;99056.03;;;15.75;87.30
65897;BME280;52677;50.898;10.854;2022-10-28T08:37:58;99058.81;;;15.89;86.28
65897;BME280;52677;50.898;10.854;2022-10-28T08:39:58;99062.00;;;15.98;83.64
65897;BME280;52677;50.898;10.854;2022-10-28T08:47:03;99062.28;;;16.46;81.34
65897;BME280;52677;50.898;10.854;2022-10-28T08:49:11;99063.84;;;16.58;80.09
65897;BME280;52677;50.898;10.854;2022-10-28T08:51:17;99047.06;;;16.62;79.64
65897;BME280;52677;50.898;10.854;2022-10-28T08:53:27;99056.63;;;16.71;79.72
65897;BME280;52677;50.898;10.854;2022-10-28T08:55:38;99055.81;;;16.78;78.83
65897;BME280;52677;50.898;10.854;2022-10-28T08:58:06;99060.97;;;16.90;79.78
65897;BME280;52677;50.898;10.854;2022-10-28T09:00:16;99058.16;;;16.97;78.93
65897;BME280;52677;50.898;10.854;2022-10-28T09:02:22;99057.31;;;17.00;78.71
65897;BME280;52677;50.898;10.854;2022-10-28T09:04:37;99060.91;;;17.01;80.02
65897;BME280;52677;50.898;10.854;2022-10-28T09:06:38;99062.88;;;17.07;79.58
65897;BME280;52677;50.898;10.854;2022-10-28T09:08:41;99056.91;;;17.05;81.01
65897;BME280;52677;50.898;10.854;2022-10-28T09:13:22;99062.00;;;17.21;79.91
65897;BME280;52677;50.898;10.854;2022-10-28T09:15:32;99060.81;;;17.22;79.29
65897;BME280;52677;50.898;10.854;2022-10-28T09:20:56;99056.84;;;17.16;76.01
65897;BME280;52677;50.898;10.854;2022-10-28T09:22:54;99061.94;;;17.28;74.71
65897;BME280;52677;50.898;10.854;2022-10-28T09:25:01;99065.47;;;17.39;74.40
65897;BME280;52677;50.898;10.854;2022-10-28T09:27:15;99053.00;;;17.55;73.72
65897;BME280;52677;50.898;10.854;2022-10-28T09:35:40;99052.25;;;17.95;73.27
65897;BME280;52677;50.898;10.854;2022-10-28T09:37:47;99045.84;;;17.99;72.26
65897;BME280;52677;50.898;10.854;2022-10-28T09:39:51;99035.41;;;18.03;73.97
65897;BME280;52677;50.898;10.854;2022-10-28T09:41:57;99035.81;;;18.01;72.63
65897;BME280;52677;50.898;10.854;2022-10-28T09:44:23;99036.25;;;18.00;73.40
65897;BME280;52677;50.898;10.854;2022-10-28T09:46:27;99041.00;;;18.03;74.19
65897;BME280;52677;50.898;10.854;2022-10-28T09:48:29;99045.31;;;18.11;74.74
65897;BME280;52677;50.898;10.854;2022-10-28T09:50:32;99038.91;;;18.14;74.76
65897;BME280;52677;50.898;10.854;2022-10-28T09:52:38;99045.25;;;18.18;73.54
65897;BME280;52677;50.898;10.854;2022-10-28T09:54:47;99037.88;;;18.38;72.80
65897;BME280;52677;50.898;10.854;2022-10-28T09:56:50;99043.72;;;18.51;72.16
65897;BME280;52677;50.898;10.854;2022-10-28T09:58:51;99037.78;;;18.45;71.11
65897;BME280;52677;50.898;10.854;2022-10-28T10:00:52;99038.19;;;18.44;71.51
65897;BME280;52677;50.898;10.854;2022-10-28T10:02:55;99042.53;;;18.48;71.87
65897;BME280;52677;50.898;10.854;2022-10-28T10:04:58;99048.38;;;18.61;71.55
65897;BME280;52677;50.898;10.854;2022-10-28T10:07:09;99043.94;;;18.67;71.57
65897;BME280;52677;50.898;10.854;2022-10-28T10:09:29;99048.31;;;18.72;72.38
65897;BME280;52677;50.898;10.854;2022-10-28T10:11:35;99051.09;;;18.72;70.62
65897;BME280;52677;50.898;10.854;2022-10-28T10:13:40;99047.13;;;18.69;70.75
65897;BME280;52677;50.898;10.854;2022-10-28T10:15:45;99037.91;;;18.69;70.16
65897;BME280;52677;50.898;10.854;2022-10-28T10:17:48;99045.97;;;18.67;69.92
65897;BME280;52677;50.898;10.854;2022-10-28T10:20:09;99051.75;;;18.83;66.57
65897;BME280;52677;50.898;10.854;2022-10-28T10:22:28;99055.97;;;18.98;67.32
65897;BME280;52677;50.898;10.854;2022-10-28T10:24:33;99064.56;;;19.15;63.78
65897;BME280;52677;50.898;10.854;2022-10-28T10:26:34;99063.53;;;19.32;63.64
65897;BME280;52677;50.898;10.854;2022-10-28T10:28:37;99064.06;;;19.50;63.22
65897;BME280;52677;50.898;10.854;2022-10-28T10:30:51;99069.91;;;19.63;64.01
65897;BME280;52677;50.898;10.854;2022-10-28T10:32:52;99061.06;;;19.64;63.46
65897;BME280;52677;50.898;10.854;2022-10-28T10:37:25;99068.19;;;19.69;63.56
65897;BME280;52677;50.898;10.854;2022-10-28T10:39:36;99065.88;;;19.64;63.26
65897;BME280;52677;50.898;10.854;2022-10-28T10:41:42;99070.97;;;19.73;61.93
65897;BME280;52677;50.898;10.854;2022-10-28T10:43:42;99067.25;;;19.79;62.41
65897;BME280;52677;50.898;10.854;2022-10-28T10:48:11;99065.09;;;19.63;62.96
65897;BME280;52677;50.898;10.854;2022-10-28T10:52:21;99067.78;;;19.71;61.47
65897;BME280;52677;50.898;10.854;2022-10-28T10:54:24;99066.59;;;19.68;61.90
65897;BME280;52677;50.898;10.854;2022-10-28T10:56:27;99063.75;;;19.72;61.53
65897;BME280;52677;50.898;10.854;2022-10-28T10:58:37;99067.47;;;19.65;62.28
65897;BME280;52677;50.898;10.854;2022-10-28T11:00:45;99068.31;;;19.62;63.81
65897;BME280;52677;50.898;10.854;2022-10-28T11:02:46;99068.72;;;19.60;62.51
65897;BME280;52677;50.898;10.854;2022-10-28T11:05:05;99063.06;;;19.64;62.15
65897;BME280;52677;50.898;10.854;2022-10-28T11:07:12;99064.00;;;19.81;62.88
65897;BME280;52677;50.898;10.854;2022-10-28T11:09:22;99057.41;;;19.91;60.38
65897;BME280;52677;50.898;10.854;2022-10-28T11:13:33;99065.69;;;19.75;63.45
65897;BME280;52677;50.898;10.854;2022-10-28T11:15:34;99053.38;;;19.69;60.36
65897;BME280;52677;50.898;10.854;2022-10-28T11:17:34;99046.72;;;19.82;59.31
65897;BME280;52677;50.898;10.854;2022-10-28T11:19:36;99054.59;;;19.91;59.05
65897;BME280;52677;50.898;10.854;2022-10-28T11:24:53;99033.91;;;19.81;60.23